Time;durP1;ratioP1;P1;durP2;ratioP2;P2;SDS_P1;SDS_P2;PMS_P1;PMS_P2;Temp;Humidity;BMP_temperature;BMP_pressure;BME280_temperature;BME280_humidity;BME280_pressure;Samples;Min_cycle;Max_cycle;Signal;HPM_P1;HPM_P2
2022/03/11 00:00:45;;;;;;;7.75;4.30;;;8.00;89.50;;;;;;5074504;28;20136;-57
2022/03/11 00:03:13;;;;;;;5.50;3.65;;;8.00;89.60;;;;;;5075185;28;20169;-58
2022/03/11 00:05:41;;;;;;;7.20;4.18;;;8.00;89.50;;;;;;5068432;28;20040;-58
2022/03/11 00:08:09;;;;;;;5.80;3.42;;;8.00;89.70;;;;;;5069270;28;20537;-56
2022/03/11 00:10:37;;;;;;;8.80;4.45;;;8.00;89.80;;;;;;5071610;28;20037;-55
2022/03/11 00:13:06;;;;;;;6.15;4.00;;;8.00;90.00;;;;;;5057450;28;20462;-55
2022/03/11 00:15:33;;;;;;;5.53;3.78;;;7.90;90.10;;;;;;5062365;28;20041;-55
2022/03/11 00:18:01;;;;;;;5.55;3.67;;;7.80;90.20;;;;;;5050108;28;20049;-56
2022/03/11 00:20:28;;;;;;;5.32;3.85;;;7.80;90.00;;;;;;5078485;28;20435;-57
2022/03/11 00:22:57;;;;;;;6.47;3.38;;;7.80;89.60;;;;;;5081956;28;20040;-58
2022/03/11 00:25:25;;;;;;;4.70;3.05;;;7.80;89.90;;;;;;5075143;28;20547;-54
2022/03/11 00:27:52;;;;;;;8.57;3.67;;;7.70;89.50;;;;;;5081312;28;20040;-57
2022/03/11 00:30:20;;;;;;;5.32;3.15;;;7.70;89.50;;;;;;5069475;28;20141;-56
2022/03/11 00:32:48;;;;;;;5.53;3.22;;;7.70;89.90;;;;;;5079135;28;20036;-57
2022/03/11 00:35:15;;;;;;;4.55;3.15;;;7.70;89.40;;;;;;5063606;28;20087;-58
2022/03/11 00:37:43;;;;;;;5.68;3.30;;;7.70;88.80;;;;;;5080394;28;20051;-57
2022/03/11 00:40:13;;;;;;;6.25;3.63;;;7.70;88.70;;;;;;5073629;28;20052;-58
2022/03/11 00:42:41;;;;;;;6.68;4.05;;;7.70;89.00;;;;;;5066823;28;20049;-58
2022/03/11 00:45:09;;;;;;;5.93;3.70;;;7.70;88.70;;;;;;5077438;28;20045;-57
2022/03/11 00:47:37;;;;;;;7.05;4.07;;;7.70;88.90;;;;;;5060129;28;20494;-56
2022/03/11 00:50:05;;;;;;;6.90;3.58;;;7.70;89.10;;;;;;5053186;28;20043;-57
2022/03/11 00:52:33;;;;;;;7.43;3.58;;;7.70;89.10;;;;;;5082049;28;20036;-56
2022/03/11 00:55:03;;;;;;;6.78;4.15;;;7.60;89.20;;;;;;5057925;28;20071;-57
2022/03/11 00:57:31;;;;;;;7.88;4.38;;;7.60;89.30;;;;;;5068867;28;20045;-57
2022/03/11 00:59:58;;;;;;;7.57;5.25;;;7.60;89.70;;;;;;5079975;28;20047;-54
2022/03/11 01:02:26;;;;;;;6.10;4.20;;;7.60;89.80;;;;;;5081584;28;20094;-56
2022/03/11 01:04:53;;;;;;;5.68;4.30;;;7.60;89.80;;;;;;5078889;28;20037;-56
2022/03/11 01:07:21;;;;;;;5.85;3.70;;;7.60;90.00;;;;;;5078537;28;20130;-56
2022/03/11 01:09:48;;;;;;;8.63;4.35;;;7.50;90.00;;;;;;5062963;28;20045;-55
2022/03/11 01:12:16;;;;;;;7.18;4.35;;;7.50;90.10;;;;;;5044761;28;20040;-57
2022/03/11 01:14:43;;;;;;;8.57;4.60;;;7.50;90.10;;;;;;5056689;28;20587;-56
2022/03/11 01:17:12;;;;;;;6.50;3.70;;;7.50;90.00;;;;;;5064578;28;20036;-57
2022/03/11 01:19:40;;;;;;;6.10;4.00;;;7.50;89.70;;;;;;5070843;28;20047;-57
2022/03/11 01:22:08;;;;;;;6.20;3.38;;;7.60;89.00;;;;;;5065693;28;20048;-57
2022/03/11 01:24:36;;;;;;;5.53;4.13;;;7.60;88.60;;;;;;5082853;28;20063;-58
2022/03/11 01:27:04;;;;;;;5.80;3.42;;;7.60;88.30;;;;;;5082181;28;20048;-57
2022/03/11 01:29:31;;;;;;;5.68;3.13;;;7.70;88.20;;;;;;5068243;28;20491;-58
2022/03/11 01:31:59;;;;;;;8.32;4.55;;;7.70;88.30;;;;;;5063661;28;20054;-55
2022/03/11 01:34:27;;;;;;;6.85;4.65;;;7.70;88.60;;;;;;5082106;28;20157;-57
2022/03/11 01:36:57;;;;;;;6.82;3.50;;;7.80;88.90;;;;;;5061551;28;20040;-56
2022/03/11 01:39:24;;;;;;;5.75;3.67;;;7.80;89.10;;;;;;5078864;28;20040;-58
2022/03/11 01:41:52;;;;;;;6.00;3.75;;;7.70;89.10;;;;;;5037969;28;20409;-57
2022/03/11 01:44:27;;;;;;;5.80;3.67;;;7.70;89.30;;;;;;5083387;28;20040;-56
2022/03/11 01:46:56;;;;;;;4.97;3.38;;;7.70;89.80;;;;;;5087776;28;20067;-58
2022/03/11 01:49:23;;;;;;;6.00;3.97;;;7.70;89.70;;;;;;5086568;28;20039;-56
2022/03/11 01:51:51;;;;;;;4.38;3.30;;;7.70;89.60;;;;;;5051290;28;20028;-59
2022/03/11 01:54:19;;;;;;;6.40;3.60;;;7.70;89.90;;;;;;5059814;28;20114;-57
2022/03/11 01:56:47;;;;;;;6.68;3.60;;;7.60;89.90;;;;;;5079115;28;20567;-55
2022/03/11 01:59:14;;;;;;;7.22;3.42;;;7.60;89.70;;;;;;5064808;28;20094;-56
2022/03/11 02:01:42;;;;;;;5.53;4.40;;;7.60;90.00;;;;;;5082737;28;20045;-58
2022/03/11 02:04:09;;;;;;;5.68;3.95;;;7.60;90.10;;;;;;5068720;28;20090;-57
2022/03/11 02:06:37;;;;;;;6.32;3.92;;;7.60;90.30;;;;;;5083940;28;20123;-56
2022/03/11 02:09:06;;;;;;;6.90;4.13;;;7.50;90.30;;;;;;5086034;28;20916;-56
2022/03/11 02:11:33;;;;;;;5.97;4.13;;;7.50;90.00;;;;;;5064388;28;20036;-56
2022/03/11 02:14:01;;;;;;;6.20;4.05;;;7.40;89.60;;;;;;5070354;28;20056;-58
2022/03/11 02:16:37;;;;;;;6.07;4.22;;;7.40;89.20;;;;;;5049915;28;20040;-58
2022/03/11 02:19:08;;;;;;;6.35;4.18;;;7.40;89.70;;;;;;5082508;28;20043;-57
2022/03/11 02:21:46;;;;;;;5.18;4.00;;;7.40;89.10;;;;;;5086590;28;20040;-58
2022/03/11 02:24:15;;;;;;;6.53;3.50;;;7.30;88.80;;;;;;5076544;28;20068;-56
2022/03/11 02:26:43;;;;;;;7.45;3.92;;;7.40;88.60;;;;;;5068597;28;20063;-57
2022/03/11 02:29:11;;;;;;;5.55;3.42;;;7.30;88.10;;;;;;5085925;28;20198;-56
2022/03/11 02:31:38;;;;;;;6.45;4.18;;;7.30;87.60;;;;;;5080562;28;20044;-56
2022/03/11 02:34:06;;;;;;;6.13;3.90;;;7.30;86.90;;;;;;5082408;28;20054;-57
2022/03/11 02:36:34;;;;;;;4.93;3.63;;;7.40;86.20;;;;;;5069527;28;20482;-57
2022/03/11 02:39:01;;;;;;;7.47;3.70;;;7.30;86.20;;;;;;5081681;28;20039;-56
2022/03/11 02:41:29;;;;;;;5.45;3.22;;;7.30;85.70;;;;;;5079739;28;20040;-57
2022/03/11 02:43:56;;;;;;;4.15;3.08;;;7.30;84.90;;;;;;5064425;28;20490;-55
2022/03/11 02:46:24;;;;;;;5.10;3.58;;;7.20;84.30;;;;;;5060120;28;20699;-57
2022/03/11 02:48:52;;;;;;;4.55;3.20;;;7.20;84.00;;;;;;5063668;28;20566;-56
2022/03/11 02:51:20;;;;;;;5.75;3.60;;;7.20;84.20;;;;;;5087337;28;20071;-56
2022/03/11 02:53:47;;;;;;;5.13;3.20;;;7.20;84.00;;;;;;5066270;28;20047;-57
2022/03/11 02:56:15;;;;;;;7.53;4.75;;;7.10;83.40;;;;;;5066169;28;20704;-57
2022/03/11 02:58:45;;;;;;;6.55;4.72;;;7.10;83.20;;;;;;5056507;28;20055;-55
2022/03/11 03:01:13;;;;;;;6.75;4.40;;;7.10;82.70;;;;;;5075531;28;20048;-55
2022/03/11 03:03:40;;;;;;;6.10;3.63;;;7.10;82.00;;;;;;5081592;28;20044;-57
2022/03/11 03:06:08;;;;;;;8.32;4.10;;;7.10;81.90;;;;;;5067033;28;20047;-56
2022/03/11 03:08:36;;;;;;;6.25;3.80;;;7.00;82.00;;;;;;5072096;28;20570;-56
2022/03/11 03:11:04;;;;;;;6.00;3.05;;;7.10;82.10;;;;;;5084930;28;20414;-57
2022/03/11 03:13:34;;;;;;;7.07;3.58;;;7.10;81.70;;;;;;5072320;28;20048;-58
2022/03/11 03:16:02;;;;;;;7.85;3.60;;;7.00;81.80;;;;;;5070713;28;20135;-55
2022/03/11 03:18:33;;;;;;;5.80;3.45;;;7.00;81.50;;;;;;5071447;28;20451;-56
2022/03/11 03:21:01;;;;;;;5.68;3.20;;;7.00;81.50;;;;;;5092095;28;20410;-56
2022/03/11 03:23:28;;;;;;;6.93;3.65;;;7.00;82.10;;;;;;5076893;28;20048;-56
2022/03/11 03:25:56;;;;;;;5.15;3.50;;;7.00;82.00;;;;;;5075686;28;20521;-57
2022/03/11 03:28:25;;;;;;;5.10;3.50;;;7.00;81.90;;;;;;5094424;28;20044;-56
2022/03/11 03:30:52;;;;;;;5.30;4.05;;;6.90;82.30;;;;;;5093006;28;20054;-55
2022/03/11 03:33:20;;;;;;;4.93;3.38;;;6.90;82.60;;;;;;5092552;28;20048;-55
2022/03/11 03:35:47;;;;;;;5.22;3.40;;;6.90;83.20;;;;;;5092733;28;20127;-54
2022/03/11 03:38:19;;;;;;;5.75;3.55;;;6.90;83.50;;;;;;5075595;28;20046;-55
2022/03/11 03:40:47;;;;;;;4.53;3.08;;;6.90;83.60;;;;;;5092689;28;20405;-55
2022/03/11 03:43:14;;;;;;;6.78;4.20;;;6.90;83.80;;;;;;5092399;28;20117;-55
2022/03/11 03:45:42;;;;;;;5.63;3.60;;;6.90;84.00;;;;;;5093400;28;20044;-53
2022/03/11 03:48:09;;;;;;;6.28;3.97;;;6.90;84.50;;;;;;5094261;28;20059;-55
2022/03/11 03:50:37;;;;;;;8.63;4.07;;;6.80;84.80;;;;;;5094438;28;20441;-54
2022/03/11 03:53:04;;;;;;;5.80;3.58;;;6.90;84.90;;;;;;5094584;28;20047;-56
2022/03/11 03:55:32;;;;;;;5.78;3.88;;;6.80;85.10;;;;;;5094338;28;20071;-56
2022/03/11 03:57:59;;;;;;;5.85;3.13;;;6.90;85.10;;;;;;5076292;28;20376;-55
2022/03/11 04:00:27;;;;;;;8.82;3.92;;;6.90;85.10;;;;;;5094028;28;20378;-55
2022/03/11 04:02:54;;;;;;;5.60;3.53;;;6.80;84.70;;;;;;5076626;28;20444;-54
2022/03/11 04:05:22;;;;;;;5.85;3.38;;;6.90;84.60;;;;;;5094368;28;20055;-55
2022/03/11 04:07:50;;;;;;;6.50;3.30;;;6.80;84.30;;;;;;5094028;28;20036;-56
2022/03/11 04:10:18;;;;;;;5.25;3.28;;;6.90;84.10;;;;;;5094132;28;20048;-55
2022/03/11 04:12:46;;;;;;;5.80;3.58;;;6.90;84.10;;;;;;5075992;28;20036;-53
2022/03/11 04:15:13;;;;;;;4.80;3.40;;;6.80;84.00;;;;;;5094276;28;20044;-55
2022/03/11 04:17:41;;;;;;;5.95;3.17;;;6.80;83.90;;;;;;5094146;28;20455;-56
2022/03/11 04:20:09;;;;;;;4.60;2.90;;;6.90;83.70;;;;;;5094187;28;20441;-54
2022/03/11 04:22:44;;;;;;;6.10;3.03;;;6.90;83.50;;;;;;5093906;28;20040;-55
2022/03/11 04:25:14;;;;;;;5.00;2.90;;;6.80;83.50;;;;;;5094137;28;20541;-54
2022/03/11 04:27:41;;;;;;;7.95;3.40;;;6.80;83.40;;;;;;5093845;28;20051;-54
2022/03/11 04:30:11;;;;;;;3.47;2.53;;;6.80;83.40;;;;;;5059340;28;20105;-54
2022/03/11 04:32:38;;;;;;;6.13;3.55;;;6.80;83.60;;;;;;5094013;28;20459;-56
2022/03/11 04:35:07;;;;;;;4.80;3.20;;;6.80;83.30;;;;;;5093868;28;20044;-55
2022/03/11 04:37:35;;;;;;;4.88;2.85;;;6.80;83.40;;;;;;5093711;28;20452;-54
2022/03/11 04:40:04;;;;;;;5.22;3.22;;;6.80;83.00;;;;;;5093695;28;20436;-55
2022/03/11 04:42:32;;;;;;;4.75;2.55;;;6.80;82.80;;;;;;5093853;28;20082;-55
2022/03/11 04:44:59;;;;;;;5.25;3.28;;;6.80;82.30;;;;;;5093673;28;20072;-55
2022/03/11 04:47:27;;;;;;;4.63;2.58;;;6.70;81.90;;;;;;5059262;28;20442;-56
2022/03/11 04:49:57;;;;;;;9.10;3.05;;;6.70;81.60;;;;;;5076143;28;20424;-56
2022/03/11 04:52:25;;;;;;;4.65;2.80;;;6.70;81.70;;;;;;5093654;28;20040;-54
2022/03/11 04:54:52;;;;;;;6.35;3.65;;;6.70;81.70;;;;;;5093828;28;20052;-56
2022/03/11 04:57:20;;;;;;;4.65;3.42;;;6.70;81.10;;;;;;5075676;28;20224;-56
2022/03/11 04:59:47;;;;;;;6.85;2.58;;;6.70;80.70;;;;;;5075567;28;20051;-54
2022/03/11 05:02:26;;;;;;;6.05;3.20;;;6.60;80.40;;;;;;5093330;28;20048;-55
2022/03/11 05:04:54;;;;;;;4.72;2.80;;;6.60;79.60;;;;;;5075698;28;20048;-55
2022/03/11 05:07:22;;;;;;;5.28;3.00;;;6.60;79.30;;;;;;5093329;28;20040;-55
2022/03/11 05:09:49;;;;;;;6.38;3.88;;;6.60;79.50;;;;;;5093620;28;20036;-56
2022/03/11 05:12:17;;;;;;;4.15;2.42;;;6.60;79.50;;;;;;5075590;28;20044;-54
2022/03/11 05:14:44;;;;;;;4.85;3.50;;;6.50;79.40;;;;;;5093406;28;20048;-55
2022/03/11 05:17:12;;;;;;;4.88;2.95;;;6.50;79.20;;;;;;5093385;28;20037;-55
2022/03/11 05:19:39;;;;;;;7.07;3.83;;;6.50;78.60;;;;;;5096325;28;20474;-56
2022/03/11 05:22:07;;;;;;;4.63;3.53;;;6.50;78.40;;;;;;5079166;28;20047;-54
2022/03/11 05:24:35;;;;;;;7.70;3.22;;;6.60;78.50;;;;;;5079393;28;20516;-54
2022/03/11 05:27:03;;;;;;;8.98;3.55;;;6.70;78.50;;;;;;5097402;28;20040;-56
2022/03/11 05:29:32;;;;;;;6.30;3.30;;;6.90;78.30;;;;;;5097180;28;20044;-54
2022/03/11 05:32:01;;;;;;;3.95;2.40;;;7.00;78.10;;;;;;5097164;28;20048;-56
2022/03/11 05:34:29;;;;;;;5.53;2.80;;;7.20;77.80;;;;;;5079025;28;20043;-56
2022/03/11 05:36:57;;;;;;;4.60;2.80;;;7.40;77.60;;;;;;5097248;28;20044;-55
2022/03/11 05:39:24;;;;;;;6.63;2.80;;;7.50;77.80;;;;;;5096933;28;20082;-56
2022/03/11 05:41:52;;;;;;;4.75;2.72;;;7.70;77.40;;;;;;5097164;28;20064;-52
2022/03/11 05:44:19;;;;;;;4.57;2.88;;;7.80;77.30;;;;;;5092728;28;20040;-57
2022/03/11 05:46:47;;;;;;;5.03;3.15;;;8.00;77.20;;;;;;5064050;28;20568;-55
2022/03/11 05:49:14;;;;;;;4.65;2.67;;;8.20;76.90;;;;;;5085083;28;20037;-57
2022/03/11 05:51:42;;;;;;;4.47;2.47;;;8.30;76.10;;;;;;5076368;28;20049;-57
2022/03/11 05:54:10;;;;;;;6.45;3.20;;;8.40;75.90;;;;;;5007220;28;20503;-56
2022/03/11 05:56:37;;;;;;;5.38;3.00;;;8.60;75.70;;;;;;5038665;28;20502;-55
2022/03/11 05:59:05;;;;;;;6.18;2.58;;;8.70;75.50;;;;;;5056498;28;20056;-53
2022/03/11 06:01:34;;;;;;;5.68;3.17;;;8.90;75.50;;;;;;5056559;28;20379;-55
2022/03/11 06:04:04;;;;;;;5.55;3.10;;;9.00;74.80;;;;;;5021499;28;20056;-55
2022/03/11 06:06:32;;;;;;;6.07;3.50;;;9.10;74.40;;;;;;5056161;28;20049;-55
2022/03/11 06:09:00;;;;;;;3.97;3.03;;;9.20;74.40;;;;;;5038614;28;20102;-54
2022/03/11 06:11:28;;;;;;;5.85;3.38;;;9.40;74.80;;;;;;5056465;28;20555;-56
2022/03/11 06:13:58;;;;;;;5.25;2.67;;;9.50;74.70;;;;;;5056094;28;20041;-55
2022/03/11 06:16:25;;;;;;;6.47;3.67;;;9.60;75.10;;;;;;5021880;28;20045;-54
2022/03/11 06:18:53;;;;;;;5.65;2.85;;;9.70;75.30;;;;;;5056187;28;20049;-55
2022/03/11 06:21:21;;;;;;;6.03;3.38;;;9.90;75.10;;;;;;5037792;28;20053;-55
2022/03/11 06:23:49;;;;;;;4.60;3.85;;;10.10;75.30;;;;;;5056146;28;20411;-53
2022/03/11 06:26:16;;;;;;;5.03;3.72;;;10.30;75.10;;;;;;5055754;28;20483;-55
2022/03/11 06:28:44;;;;;;;5.40;3.25;;;10.30;74.70;;;;;;5055704;28;20041;-52
2022/03/11 06:31:12;;;;;;;5.53;2.75;;;10.50;74.60;;;;;;5055581;28;20558;-54
2022/03/11 06:33:39;;;;;;;4.93;3.40;;;10.60;74.50;;;;;;5055638;28;20480;-54
2022/03/11 06:36:07;;;;;;;6.22;3.72;;;10.60;74.30;;;;;;5055619;28;20037;-53
2022/03/11 06:38:35;;;;;;;5.20;3.88;;;10.80;74.50;;;;;;5055679;28;20045;-51
2022/03/11 06:41:04;;;;;;;7.65;4.85;;;10.80;72.80;;;;;;5021687;28;20147;-54
2022/03/11 06:43:31;;;;;;;4.75;3.45;;;10.90;72.90;;;;;;5055801;28;20041;-54
2022/03/11 06:45:59;;;;;;;4.47;3.40;;;11.00;73.00;;;;;;5055905;28;20071;-55
2022/03/11 06:48:26;;;;;;;6.93;3.70;;;11.20;72.30;;;;;;5037768;28;20070;-52
2022/03/11 06:50:54;;;;;;;6.18;3.50;;;11.30;70.50;;;;;;5055618;28;20067;-55
2022/03/11 06:53:26;;;;;;;5.57;3.75;;;11.50;69.40;;;;;;5037460;28;20190;-54
2022/03/11 06:55:53;;;;;;;5.35;3.17;;;11.60;69.20;;;;;;5037700;28;20041;-55
2022/03/11 06:58:21;;;;;;;6.50;4.28;;;11.90;68.90;;;;;;5037703;28;20095;-56
2022/03/11 07:00:49;;;;;;;5.43;3.30;;;12.00;68.60;;;;;;5055184;28;20049;-54
2022/03/11 07:03:17;;;;;;;4.13;3.00;;;12.20;67.90;;;;;;5055379;28;20041;-56
2022/03/11 07:05:44;;;;;;;5.10;2.65;;;12.30;68.10;;;;;;5055232;28;20056;-54
2022/03/11 07:08:15;;;;;;;4.75;2.58;;;12.40;67.60;;;;;;5055144;28;20086;-55
2022/03/11 07:10:43;;;;;;;5.47;3.60;;;12.40;66.70;;;;;;5055054;28;20056;-53
2022/03/11 07:13:12;;;;;;;5.05;3.50;;;12.50;67.30;;;;;;5054935;28;20475;-54
2022/03/11 07:15:40;;;;;;;5.07;3.55;;;12.50;66.50;;;;;;5054879;28;20446;-54
2022/03/11 07:18:07;;;;;;;4.10;2.75;;;12.60;64.90;;;;;;5055009;28;20087;-55
2022/03/11 07:20:35;;;;;;;4.00;2.78;;;12.60;64.30;;;;;;5054927;28;20052;-54
2022/03/11 07:23:20;;;;;;;8.32;2.70;;;12.60;64.80;;;;;;5054932;28;20041;-55
2022/03/11 07:25:48;;;;;;;4.05;2.80;;;12.70;64.50;;;;;;5054531;28;20175;-54
2022/03/11 07:28:15;;;;;;;4.55;2.83;;;12.30;61.90;;;;;;5037009;28;20395;-54
2022/03/11 07:30:43;;;;;;;5.40;3.35;;;12.20;61.40;;;;;;5054763;28;20048;-55
2022/03/11 07:33:12;;;;;;;4.72;2.70;;;12.20;61.20;;;;;;5054734;28;20093;-54
2022/03/11 07:35:39;;;;;;;4.18;2.95;;;12.00;61.10;;;;;;5054456;28;20538;-54
2022/03/11 07:38:07;;;;;;;4.20;2.60;;;11.90;60.60;;;;;;5054417;28;20150;-54
2022/03/11 07:40:35;;;;;;;3.97;2.72;;;11.90;61.00;;;;;;5036483;28;20087;-55
2022/03/11 07:43:03;;;;;;;4.90;2.60;;;11.70;61.40;;;;;;5054098;28;20553;-54
2022/03/11 07:45:30;;;;;;;5.40;2.92;;;12.00;61.70;;;;;;5054563;28;20095;-54
2022/03/11 07:47:59;;;;;;;3.95;2.60;;;12.10;61.70;;;;;;5036732;28;20052;-54
2022/03/11 07:50:27;;;;;;;4.40;2.35;;;12.20;61.00;;;;;;5019983;28;20388;-54
2022/03/11 07:52:55;;;;;;;4.38;2.55;;;12.20;59.60;;;;;;5054162;28;20132;-53
2022/03/11 07:55:23;;;;;;;4.18;2.55;;;12.30;59.80;;;;;;5054303;28;20057;-55
2022/03/11 07:57:50;;;;;;;4.60;2.85;;;12.30;59.60;;;;;;5054239;28;20399;-53
2022/03/11 08:00:18;;;;;;;4.78;2.75;;;12.10;59.50;;;;;;5036155;28;20432;-54
2022/03/11 08:02:46;;;;;;;5.90;3.20;;;12.30;59.90;;;;;;5036329;28;20045;-56
2022/03/11 08:05:16;;;;;;;4.93;2.55;;;12.50;60.30;;;;;;5053959;28;20514;-55
2022/03/11 08:07:49;;;;;;;3.92;2.58;;;12.50;58.90;;;;;;5036303;28;20445;-56
2022/03/11 08:10:18;;;;;;;4.07;2.65;;;12.60;58.30;;;;;;5054185;28;20036;-54
2022/03/11 08:12:46;;;;;;;4.53;2.78;;;12.60;58.10;;;;;;5054011;28;20037;-55
2022/03/11 08:15:14;;;;;;;3.70;2.53;;;12.50;58.30;;;;;;5036310;28;20513;-54
2022/03/11 08:17:42;;;;;;;4.85;2.70;;;12.50;58.00;;;;;;5053835;28;20056;-54
2022/03/11 08:20:12;;;;;;;4.25;2.63;;;12.50;59.00;;;;;;5053679;28;20106;-55
2022/03/11 08:22:39;;;;;;;4.70;3.15;;;12.60;59.50;;;;;;5053791;28;20080;-56
2022/03/11 08:25:11;;;;;;;4.45;2.53;;;12.70;58.90;;;;;;5053699;28;20388;-55
2022/03/11 08:27:40;;;;;;;3.05;2.40;;;12.50;57.90;;;;;;5036752;28;20064;-56
2022/03/11 08:30:09;;;;;;;6.70;2.38;;;12.40;58.20;;;;;;5053609;28;20037;-56
2022/03/11 08:32:39;;;;;;;4.68;2.35;;;12.60;58.70;;;;;;5053557;28;20144;-54
2022/03/11 08:35:08;;;;;;;4.60;3.00;;;12.60;58.50;;;;;;5053562;28;20395;-55
2022/03/11 08:37:39;;;;;;;4.25;2.42;;;12.60;59.10;;;;;;5053732;28;20053;-53
2022/03/11 08:40:08;;;;;;;6.63;2.42;;;12.70;59.10;;;;;;5053899;28;20052;-55
2022/03/11 08:42:38;;;;;;;5.78;2.90;;;12.90;59.30;;;;;;5053432;28;20435;-55
2022/03/11 08:45:07;;;;;;;4.47;1.92;;;12.90;58.60;;;;;;5053561;28;20076;-54
2022/03/11 08:47:34;;;;;;;4.75;2.70;;;12.90;58.80;;;;;;5053581;28;20041;-52
2022/03/11 08:50:03;;;;;;;4.03;2.75;;;12.80;58.50;;;;;;5053921;28;20041;-54
2022/03/11 08:52:30;;;;;;;4.78;2.83;;;12.80;58.90;;;;;;5053614;28;20041;-55
2022/03/11 08:54:58;;;;;;;3.80;2.50;;;12.90;59.80;;;;;;5057216;28;20095;-53
2022/03/11 08:57:26;;;;;;;4.80;2.90;;;13.00;59.40;;;;;;5057530;28;20078;-56
2022/03/11 08:59:56;;;;;;;3.53;2.15;;;13.10;59.20;;;;;;5039607;28;20041;-57
2022/03/11 09:02:23;;;;;;;3.58;3.17;;;13.20;59.50;;;;;;5057652;28;20055;-56
2022/03/11 09:04:51;;;;;;;4.95;3.03;;;13.40;59.10;;;;;;5057643;28;20095;-55
2022/03/11 09:07:18;;;;;;;5.45;3.00;;;13.50;59.00;;;;;;5057404;28;20124;-55
2022/03/11 09:09:46;;;;;;;4.72;2.50;;;13.40;59.40;;;;;;5057253;28;20071;-52
2022/03/11 09:12:14;;;;;;;4.68;2.58;;;13.30;59.10;;;;;;5057312;28;20033;-54
2022/03/11 09:14:42;;;;;;;3.63;2.53;;;13.30;59.10;;;;;;5039664;28;20037;-53
2022/03/11 09:17:09;;;;;;;4.22;2.65;;;13.20;58.90;;;;;;5057437;28;20048;-53
2022/03/11 09:19:37;;;;;;;4.13;2.50;;;13.20;59.50;;;;;;5057289;28;20099;-54
2022/03/11 09:22:12;;;;;;;3.03;2.35;;;13.00;59.50;;;;;;5057266;28;20430;-54
2022/03/11 09:24:40;;;;;;;3.92;2.35;;;12.80;59.70;;;;;;5039428;28;20076;-55
2022/03/11 09:27:09;;;;;;;4.55;2.60;;;12.60;60.10;;;;;;5056506;28;20507;-54
2022/03/11 09:29:37;;;;;;;5.82;3.42;;;12.70;60.60;;;;;;5039284;28;20120;-55
2022/03/11 09:32:06;;;;;;;5.18;3.40;;;12.80;61.20;;;;;;5057044;28;20037;-55
2022/03/11 09:34:36;;;;;;;4.90;2.80;;;12.90;61.60;;;;;;5056914;28;20518;-54
2022/03/11 09:37:05;;;;;;;5.25;3.75;;;13.10;61.90;;;;;;5056987;28;20037;-56
2022/03/11 09:39:33;;;;;;;5.63;3.30;;;13.20;62.20;;;;;;5056716;28;20044;-55
2022/03/11 09:42:03;;;;;;;4.82;3.05;;;13.30;62.20;;;;;;5039162;28;20044;-55
2022/03/11 09:44:31;;;;;;;7.60;3.10;;;13.20;61.30;;;;;;5056911;28;20094;-55
2022/03/11 09:46:59;;;;;;;3.88;2.45;;;13.40;61.70;;;;;;5039041;28;20040;-55
2022/03/11 09:49:29;;;;;;;6.22;3.65;;;13.20;61.00;;;;;;5056463;28;20077;-55
2022/03/11 09:51:57;;;;;;;4.55;3.25;;;13.00;62.20;;;;;;5056602;28;20037;-53
2022/03/11 09:54:24;;;;;;;3.40;2.60;;;13.20;62.40;;;;;;5038511;28;20055;-56
2022/03/11 09:56:53;;;;;;;5.00;3.15;;;13.10;61.40;;;;;;5056691;28;20048;-55
2022/03/11 09:59:21;;;;;;;4.97;3.55;;;13.10;62.50;;;;;;5038827;28;20081;-54
2022/03/11 10:01:49;;;;;;;6.95;4.47;;;13.30;62.80;;;;;;5047536;28;20055;-56
2022/03/11 10:04:17;;;;;;;6.50;3.40;;;13.20;61.80;;;;;;5043572;28;20041;-56
2022/03/11 10:06:47;;;;;;;4.40;3.05;;;13.30;61.60;;;;;;5049196;28;20147;-54
2022/03/11 10:09:18;;;;;;;4.70;2.80;;;13.40;61.90;;;;;;5042786;28;20447;-55
2022/03/11 10:11:53;;;;;;;3.97;2.83;;;13.30;61.70;;;;;;5043435;28;20088;-55
2022/03/11 10:14:29;;;;;;;5.05;3.20;;;13.30;61.20;;;;;;5045980;28;20068;-57
2022/03/11 10:16:58;;;;;;;5.35;3.25;;;13.40;61.80;;;;;;5036398;28;20576;-57
2022/03/11 10:19:26;;;;;;;5.50;3.05;;;13.30;60.90;;;;;;5044790;28;20045;-56
2022/03/11 10:21:58;;;;;;;4.65;2.97;;;13.30;61.60;;;;;;5030812;28;20579;-54
2022/03/11 10:24:26;;;;;;;5.75;3.83;;;13.40;61.70;;;;;;5015290;28;20057;-53
2022/03/11 10:27:02;;;;;;;7.10;4.35;;;13.50;65.40;;;;;;5016255;28;20038;-54
2022/03/11 10:29:34;;;;;;;5.97;3.83;;;13.80;64.10;;;;;;5014915;28;20107;-59
2022/03/11 10:32:06;;;;;;;5.90;3.85;;;13.90;62.00;;;;;;4998497;28;20054;-57
2022/03/11 10:34:35;;;;;;;5.03;3.60;;;14.00;61.90;;;;;;5015093;28;20116;-57
2022/03/11 10:37:06;;;;;;;5.35;3.35;;;14.00;62.00;;;;;;4998780;28;20045;-56
2022/03/11 10:39:43;;;;;;;4.43;3.20;;;14.10;63.70;;;;;;5015886;28;20073;-58
2022/03/11 10:42:14;;;;;;;5.07;3.40;;;14.10;62.70;;;;;;5014906;28;20054;-58
2022/03/11 10:44:58;;;;;;;3.80;2.80;;;14.20;64.50;;;;;;5015940;28;20051;-58
2022/03/11 10:47:36;;;;;;;4.55;2.97;;;14.40;64.90;;;;;;5016051;28;20480;-58
2022/03/11 10:50:07;;;;;;;4.25;3.20;;;14.40;63.60;;;;;;5014548;28;20050;-58
2022/03/11 10:52:42;;;;;;;4.68;2.72;;;14.50;61.50;;;;;;5015803;28;20046;-58
2022/03/11 10:55:23;;;;;;;5.00;3.45;;;14.40;63.60;;;;;;5015729;28;20120;-58
2022/03/11 10:57:54;;;;;;;5.00;2.80;;;14.60;61.10;;;;;;5015911;28;20088;-58
2022/03/11 11:00:24;;;;;;;5.80;3.65;;;14.40;60.60;;;;;;5017856;28;20049;-58
2022/03/11 11:02:57;;;;;;;7.13;4.43;;;14.30;61.60;;;;;;5034043;28;20385;-58
2022/03/11 11:05:26;;;;;;;8.48;4.57;;;14.20;61.90;;;;;;5035325;28;20053;-58
2022/03/11 11:07:57;;;;;;;5.43;4.00;;;14.10;62.00;;;;;;5035090;28;20080;-57
2022/03/11 11:10:27;;;;;;;8.07;4.22;;;14.20;61.70;;;;;;5035205;28;20060;-57
2022/03/11 11:12:55;;;;;;;4.45;3.17;;;14.20;62.20;;;;;;5035196;28;20510;-56
2022/03/11 11:15:23;;;;;;;6.78;4.53;;;14.20;62.80;;;;;;5033765;28;20213;-57
2022/03/11 11:17:54;;;;;;;7.93;4.47;;;14.30;62.60;;;;;;5034518;28;20492;-57
2022/03/11 11:20:33;;;;;;;6.72;4.18;;;14.30;62.60;;;;;;5034816;28;20057;-57
2022/03/11 11:23:06;;;;;;;10.00;5.57;;;14.30;62.20;;;;;;5035058;28;20042;-57
2022/03/11 11:25:35;;;;;;;6.80;3.70;;;14.30;61.90;;;;;;5034981;28;20041;-57
2022/03/11 11:28:07;;;;;;;5.45;3.83;;;14.20;60.50;;;;;;5033648;28;20099;-57
2022/03/11 11:30:35;;;;;;;5.25;3.67;;;13.90;61.90;;;;;;5033557;28;20546;-54
2022/03/11 11:33:03;;;;;;;6.00;3.72;;;13.70;61.70;;;;;;5033439;28;20131;-57
2022/03/11 11:35:33;;;;;;;5.63;4.25;;;13.80;62.70;;;;;;5034806;28;20229;-56
2022/03/11 11:38:07;;;;;;;5.28;3.42;;;13.80;62.50;;;;;;5034666;28;20046;-57
2022/03/11 11:40:39;;;;;;;7.07;3.85;;;13.70;62.70;;;;;;5034511;28;20084;-55
2022/03/11 11:43:15;;;;;;;6.53;3.97;;;13.80;62.90;;;;;;5034573;28;20103;-58
2022/03/11 11:45:49;;;;;;;7.45;4.25;;;13.90;62.90;;;;;;5034415;28;20060;-57
2022/03/11 11:48:32;;;;;;;5.97;4.03;;;13.90;63.10;;;;;;5034642;28;20431;-56
2022/03/11 11:51:01;;;;;;;4.97;3.53;;;13.80;65.30;;;;;;5034579;28;20038;-57
2022/03/11 11:53:42;;;;;;;6.50;3.22;;;13.80;62.50;;;;;;5034350;28;20049;-57
2022/03/11 11:56:29;;;;;;;5.95;3.72;;;13.60;63.60;;;;;;5033381;28;20034;-57
2022/03/11 11:58:58;;;;;;;;;;;13.50;63.00;;;;;;5034924;28;20400;-56
2022/03/11 12:01:44;;;;;;;4.95;3.33;;;13.60;63.10;;;;;;5046354;28;20008;-56
2022/03/11 12:04:36;;;;;;;7.00;3.47;;;13.60;63.00;;;;;;5054047;28;20135;-57
2022/03/11 12:07:10;;;;;;;4.97;3.72;;;13.50;62.10;;;;;;5054340;28;20088;-57
2022/03/11 12:09:40;;;;;;;7.53;4.95;;;13.50;62.60;;;;;;5054075;28;20041;-56
2022/03/11 12:14:57;;;;;;;6.50;4.00;;;13.30;64.10;;;;;;5053917;28;20033;-54
2022/03/11 12:17:48;;;;;;;7.32;4.25;;;13.30;63.90;;;;;;5036345;28;20144;-57
2022/03/11 12:20:31;;;;;;;5.85;4.18;;;13.40;63.80;;;;;;5036213;28;20116;-57
2022/03/11 12:23:12;;;;;;;6.53;4.50;;;13.50;64.40;;;;;;5036141;28;20049;-57
2022/03/11 12:25:44;;;;;;;6.07;4.15;;;13.30;63.50;;;;;;5053840;28;20044;-57
2022/03/11 12:28:31;;;;;;;6.43;4.35;;;13.20;63.50;;;;;;5053718;28;20048;-57
2022/03/11 12:31:32;;;;;;;8.15;4.90;;;13.20;64.60;;;;;;5053787;28;20129;-56
2022/03/11 12:34:04;;;;;;;6.90;4.80;;;13.20;64.80;;;;;;5041583;28;20052;-57
2022/03/11 12:36:32;;;;;;;5.75;4.50;;;13.10;64.40;;;;;;5053547;28;20037;-57
2022/03/11 12:39:00;;;;;;;5.43;3.80;;;13.10;64.30;;;;;;5053611;28;20044;-56
2022/03/11 12:41:30;;;;;;;6.00;4.10;;;13.10;64.30;;;;;;5035710;28;20049;-57
2022/03/11 12:44:00;;;;;;;6.05;3.92;;;13.20;63.10;;;;;;5019640;28;20398;-57
2022/03/11 12:46:27;;;;;;;5.57;3.92;;;13.20;64.10;;;;;;5053310;28;20045;-56
2022/03/11 12:48:55;;;;;;;6.38;4.53;;;13.00;64.60;;;;;;5035564;28;20487;-56
2022/03/11 12:51:25;;;;;;;8.07;4.63;;;12.80;64.20;;;;;;5052899;28;20047;-56
2022/03/11 12:53:53;;;;;;;7.88;4.78;;;12.80;64.60;;;;;;5052981;28;20118;-57
2022/03/11 12:56:23;;;;;;;12.05;4.80;;;12.70;64.70;;;;;;5053551;28;20065;-56
2022/03/11 12:58:53;;;;;;;6.03;4.07;;;12.70;64.60;;;;;;5035487;28;20040;-56
2022/03/11 13:01:21;;;;;;;5.88;4.10;;;12.60;64.70;;;;;;5035793;28;20049;-54
2022/03/11 13:03:52;;;;;;;6.78;3.17;;;12.50;67.70;;;;;;5053389;28;20056;-57
2022/03/11 13:06:20;;;;;;;6.63;4.43;;;12.50;65.50;;;;;;5053369;28;20443;-57